createdAt,value
2022-09-09T00:06:24.845Z,18.37
2022-09-09T00:13:43.558Z,18.34
2022-09-09T00:21:03.944Z,18.30
2022-09-09T00:28:15.753Z,18.26
2022-09-09T00:35:19.790Z,18.23
2022-09-09T00:42:25.045Z,18.15
2022-09-09T00:50:01.031Z,18.11
2022-09-09T00:57:32.175Z,18.08
2022-09-09T01:04:35.567Z,18.00
2022-09-09T01:11:39.074Z,18.00
2022-09-09T01:18:46.573Z,17.97
2022-09-09T01:26:10.120Z,17.91
2022-09-09T01:33:14.802Z,17.80
2022-09-09T01:40:17.095Z,17.76
2022-09-09T01:47:19.202Z,17.73
2022-09-09T01:54:41.020Z,17.66
2022-09-09T02:02:10.722Z,17.64
2022-09-09T02:09:15.903Z,17.58
2022-09-09T02:16:35.239Z,17.55
2022-09-09T02:23:37.111Z,17.52
2022-09-09T02:30:43.108Z,17.50
2022-09-09T02:37:47.142Z,17.46
2022-09-09T02:44:50.104Z,17.44
2022-09-09T02:52:03.573Z,17.37
2022-09-09T02:59:06.364Z,17.30
2022-09-09T03:06:10.935Z,17.33
2022-09-09T03:13:16.206Z,17.33
2022-09-09T03:20:19.656Z,17.28
2022-09-09T03:27:21.473Z,17.24
2022-09-09T03:34:23.218Z,17.20
2022-09-09T03:41:25.392Z,17.20
2022-09-09T03:48:28.990Z,17.16
2022-09-09T03:55:31.367Z,17.14
2022-09-09T04:02:33.130Z,17.10
2022-09-09T04:09:35.679Z,17.09
2022-09-09T04:16:38.420Z,17.06
2022-09-09T04:23:40.427Z,17.07
2022-09-09T04:30:42.492Z,17.02
2022-09-09T04:37:45.862Z,17.00
2022-09-09T04:44:47.642Z,16.98
2022-09-09T04:51:52.835Z,16.95
2022-09-09T04:58:55.518Z,17.00
2022-09-09T05:06:27.554Z,17.03
2022-09-09T05:13:33.133Z,17.03
2022-09-09T05:20:35.423Z,17.03
2022-09-09T05:27:37.472Z,17.15
2022-09-09T05:34:40.281Z,17.14
2022-09-09T05:41:42.323Z,17.20
2022-09-09T05:48:47.271Z,17.27
2022-09-09T05:55:49.802Z,17.37
2022-09-09T06:02:53.495Z,17.33
2022-09-09T06:09:56.685Z,17.35
2022-09-09T06:16:58.531Z,17.34
2022-09-09T06:24:04.789Z,17.43
2022-09-09T06:31:08.307Z,17.57
2022-09-09T06:38:10.263Z,17.74
2022-09-09T06:45:13.371Z,17.93
2022-09-09T06:52:25.871Z,18.20
2022-09-09T06:59:29.078Z,18.40
2022-09-09T07:06:32.610Z,18.67
2022-09-09T07:13:36.425Z,19.13
2022-09-09T07:20:39.183Z,19.36
2022-09-09T07:27:41.637Z,19.79
2022-09-09T07:34:43.696Z,20.09
2022-09-09T07:41:47.285Z,20.50
2022-09-09T07:48:53.034Z,20.85
2022-09-09T07:55:56.826Z,21.23
2022-09-09T08:02:58.744Z,21.78
2022-09-09T08:10:00.326Z,22.16
2022-09-09T08:17:05.931Z,22.40
2022-09-09T08:24:09.128Z,22.98
2022-09-09T08:31:14.302Z,22.34
2022-09-09T08:38:19.090Z,22.27
2022-09-09T08:45:38.442Z,22.36
2022-09-09T08:52:51.233Z,22.10
2022-09-09T08:59:55.757Z,21.72
2022-09-09T09:07:08.311Z,21.73
2022-09-09T09:14:16.746Z,22.24
2022-09-09T09:21:47.043Z,23.31
2022-09-09T09:28:51.195Z,24.42
2022-09-09T09:35:54.504Z,25.03
2022-09-09T09:43:01.531Z,25.93
2022-09-09T09:50:05.873Z,26.80
2022-09-09T09:57:12.767Z,26.76
2022-09-09T10:04:21.656Z,26.75
2022-09-09T10:11:25.598Z,27.41
2022-09-09T10:18:32.257Z,27.77
2022-09-09T10:25:59.413Z,27.60
2022-09-09T10:33:16.872Z,27.74
2022-09-09T10:40:21.178Z,27.34
2022-09-09T10:47:54.029Z,27.34
2022-09-09T10:55:21.416Z,26.82
2022-09-09T11:02:33.494Z,27.54
2022-09-09T11:09:39.217Z,29.16
2022-09-09T11:16:49.671Z,30.47
2022-09-09T11:24:00.903Z,30.43
2022-09-09T11:31:02.484Z,29.02
2022-09-09T11:38:28.759Z,27.59
2022-09-09T11:45:30.382Z,27.10
2022-09-09T11:52:39.892Z,26.56
2022-09-09T11:59:51.224Z,26.23
2022-09-09T12:07:04.214Z,26.05
2022-09-09T12:14:05.826Z,27.24
2022-09-09T12:21:26.822Z,29.71
2022-09-09T12:28:41.704Z,30.87
2022-09-09T12:35:44.322Z,30.83
2022-09-09T12:42:45.892Z,30.40
2022-09-09T12:49:47.714Z,29.82
2022-09-09T12:56:49.360Z,28.81
2022-09-09T13:03:51.005Z,27.72
2022-09-09T13:11:02.634Z,27.66
2022-09-09T13:18:07.206Z,27.41
2022-09-09T13:25:12.369Z,27.27
2022-09-09T13:32:17.848Z,27.16
2022-09-09T13:39:19.866Z,27.64
2022-09-09T13:46:36.570Z,28.12
2022-09-09T13:53:38.213Z,28.80
2022-09-09T14:00:40.669Z,29.56
2022-09-09T14:07:43.243Z,28.91
2022-09-09T14:14:44.924Z,28.22
2022-09-09T14:21:46.519Z,27.70
2022-09-09T14:28:56.150Z,27.79
2022-09-09T14:36:01.885Z,28.87
2022-09-09T14:43:03.937Z,29.18
2022-09-09T14:50:07.066Z,29.33
2022-09-09T14:57:08.640Z,28.72
2022-09-09T15:04:12.534Z,28.23
2022-09-09T15:11:14.785Z,27.73
2022-09-09T15:18:16.861Z,27.36
2022-09-09T15:25:18.973Z,28.35
2022-09-09T15:32:20.560Z,29.31
2022-09-09T15:39:22.955Z,29.19
2022-09-09T15:46:29.402Z,28.76
2022-09-09T15:53:33.199Z,28.62
2022-09-09T16:00:35.268Z,28.53
2022-09-09T16:07:37.023Z,28.87
2022-09-09T16:14:39.713Z,28.43
2022-09-09T16:21:49.712Z,27.63
2022-09-09T16:28:51.334Z,27.04
2022-09-09T16:35:52.949Z,26.73
2022-09-09T16:42:54.929Z,26.54
2022-09-09T16:49:56.514Z,26.22
2022-09-09T16:56:58.598Z,25.66
2022-09-09T17:04:04.293Z,25.51
2022-09-09T17:11:19.254Z,25.23
2022-09-09T17:18:21.663Z,24.73
2022-09-09T17:25:23.864Z,24.24
2022-09-09T17:32:25.697Z,24.06
2022-09-09T17:39:27.314Z,24.07
2022-09-09T17:46:30.888Z,23.74
2022-09-09T17:53:37.476Z,23.52
2022-09-09T18:00:39.084Z,23.42
2022-09-09T18:07:40.649Z,23.08
2022-09-09T18:14:42.275Z,22.86
2022-09-09T18:21:44.547Z,22.73
2022-09-09T18:28:50.908Z,22.57
2022-09-09T18:35:52.544Z,22.37
2022-09-09T18:42:54.119Z,21.95
2022-09-09T18:49:56.175Z,21.91
2022-09-09T18:56:59.455Z,21.80
2022-09-09T19:04:01.400Z,21.80
2022-09-09T19:11:04.932Z,21.81
2022-09-09T19:18:06.753Z,21.67
2022-09-09T19:25:08.344Z,21.58
2022-09-09T19:39:34.427Z,21.33
2022-09-09T19:46:36.801Z,21.26
2022-09-09T19:53:40.079Z,21.13
2022-09-09T20:00:41.939Z,20.98
2022-09-09T20:07:45.159Z,20.91
2022-09-09T20:14:47.200Z,20.87
2022-09-09T20:21:49.435Z,20.84
2022-09-09T20:28:52.116Z,20.83
2022-09-09T20:35:54.082Z,20.76
2022-09-09T20:42:55.650Z,20.69
2022-09-09T20:49:57.252Z,20.64
2022-09-09T20:57:00.316Z,20.56
2022-09-09T21:04:02.343Z,20.46
2022-09-09T21:11:04.424Z,20.32
2022-09-09T21:18:05.953Z,20.22
2022-09-09T21:25:07.918Z,20.22
2022-09-09T21:32:09.503Z,20.21
2022-09-09T21:39:11.082Z,20.06
2022-09-09T21:46:14.613Z,19.95
2022-09-09T21:53:18.090Z,19.75
2022-09-09T22:00:19.727Z,19.58
2022-09-09T22:07:21.324Z,19.50
2022-09-09T22:14:23.048Z,19.54
2022-09-09T22:21:26.044Z,19.54
2022-09-09T22:28:27.620Z,19.54
2022-09-09T22:35:29.197Z,19.49
2022-09-09T22:42:30.839Z,19.45
2022-09-09T22:49:32.439Z,19.41
2022-09-09T22:56:34.149Z,19.35
2022-09-09T23:03:35.783Z,19.26
2022-09-09T23:10:40.425Z,19.18
2022-09-09T23:17:42.181Z,19.19
2022-09-09T23:24:43.839Z,19.19
2022-09-09T23:31:45.687Z,19.16
2022-09-09T23:38:47.451Z,19.09
2022-09-09T23:45:50.316Z,19.03
2022-09-09T23:52:52.261Z,19.00
2022-09-09T23:59:53.828Z,18.92
